createdAt,value
2023-01-23T00:00:35.465Z,8.50
2023-01-23T00:03:37.866Z,11.40
2023-01-23T00:06:40.998Z,9.20
2023-01-23T00:09:43.532Z,8.43
2023-01-23T00:12:49.029Z,8.93
2023-01-23T00:15:51.998Z,8.48
2023-01-23T00:18:54.816Z,9.20
2023-01-23T00:22:00.205Z,8.90
2023-01-23T00:25:03.461Z,7.03
2023-01-23T00:28:06.828Z,8.77
2023-01-23T00:31:13.064Z,8.55
2023-01-23T00:34:15.695Z,7.45
2023-01-23T00:37:18.060Z,8.43
2023-01-23T00:40:23.623Z,8.43
2023-01-23T00:43:26.127Z,6.80
2023-01-23T00:46:28.633Z,7.75
2023-01-23T00:49:32.550Z,7.43
2023-01-23T00:52:35.156Z,8.93
2023-01-23T00:55:37.486Z,7.25
2023-01-23T00:58:43.520Z,7.88
2023-01-23T01:01:47.890Z,6.70
2023-01-23T01:04:50.396Z,6.47
2023-01-23T01:07:52.774Z,7.43
2023-01-23T01:10:56.435Z,5.13
2023-01-23T01:14:01.475Z,8.80
2023-01-23T01:17:04.076Z,6.28
2023-01-23T01:20:08.785Z,5.68
2023-01-23T01:23:11.981Z,7.33
2023-01-23T01:26:14.535Z,7.43
2023-01-23T01:29:18.117Z,6.32
2023-01-23T01:32:20.528Z,6.05
2023-01-23T01:35:24.577Z,6.90
2023-01-23T01:38:27.480Z,6.13
2023-01-23T01:41:31.036Z,6.55
2023-01-23T01:44:57.678Z,6.20
2023-01-23T01:48:00.974Z,9.73
2023-01-23T01:51:14.260Z,6.32
2023-01-23T01:54:23.192Z,5.70
2023-01-23T01:57:30.395Z,5.35
2023-01-23T02:00:36.226Z,4.97
2023-01-23T02:03:39.496Z,5.10
2023-01-23T02:06:42.023Z,5.50
2023-01-23T02:09:44.908Z,6.35
2023-01-23T02:12:50.126Z,4.50
2023-01-23T02:15:53.187Z,6.10
2023-01-23T02:19:01.127Z,5.03
2023-01-23T02:22:28.361Z,3.95
2023-01-23T02:25:42.895Z,3.93
2023-01-23T02:28:51.624Z,4.43
2023-01-23T02:31:56.869Z,3.63
2023-01-23T02:35:05.473Z,3.03
2023-01-23T02:38:11.403Z,4.07
2023-01-23T02:41:15.300Z,4.10
2023-01-23T02:44:25.168Z,5.55
2023-01-23T02:47:29.574Z,5.70
2023-01-23T02:50:34.984Z,3.60
2023-01-23T02:53:38.109Z,3.53
2023-01-23T02:56:42.311Z,3.20
2023-01-23T03:00:03.200Z,2.90
2023-01-23T03:03:08.656Z,3.47
2023-01-23T03:06:11.679Z,5.97
2023-01-23T03:09:17.141Z,3.30
2023-01-23T03:12:21.269Z,3.45
2023-01-23T03:15:24.096Z,4.85
2023-01-23T03:18:27.731Z,2.93
2023-01-23T03:21:30.280Z,3.05
2023-01-23T03:24:34.137Z,2.65
2023-01-23T03:27:37.439Z,2.80
2023-01-23T03:30:40.376Z,4.30
2023-01-23T03:33:44.251Z,5.05
2023-01-23T03:36:48.437Z,6.05
2023-01-23T03:40:09.750Z,4.18
2023-01-23T03:43:14.088Z,5.78
2023-01-23T03:46:22.317Z,5.88
2023-01-23T03:49:25.221Z,5.53
2023-01-23T03:52:33.540Z,3.50
2023-01-23T03:55:35.928Z,3.85
2023-01-23T03:58:38.805Z,4.40
2023-01-23T04:01:41.593Z,2.67
2023-01-23T04:04:44.015Z,4.45
2023-01-23T04:07:46.354Z,3.92
2023-01-23T04:10:49.830Z,4.28
2023-01-23T04:13:53.825Z,4.32
2023-01-23T04:16:56.267Z,4.13
2023-01-23T04:19:58.779Z,3.27
2023-01-23T04:23:01.687Z,5.03
2023-01-23T04:26:05.462Z,5.45
2023-01-23T04:29:08.198Z,3.77
2023-01-23T04:32:10.933Z,5.70
2023-01-23T04:35:19.700Z,4.25
2023-01-23T04:38:23.941Z,4.55
2023-01-23T04:41:29.303Z,3.72
2023-01-23T04:44:43.186Z,5.05
2023-01-23T04:48:03.822Z,5.82
2023-01-23T04:51:08.879Z,3.37
2023-01-23T04:54:12.232Z,4.15
2023-01-23T04:57:14.557Z,5.38
2023-01-23T05:00:18.671Z,3.53
2023-01-23T05:03:22.347Z,3.58
2023-01-23T05:06:24.896Z,3.75
2023-01-23T05:09:30.353Z,4.25
2023-01-23T05:12:34.458Z,4.25
2023-01-23T05:15:38.328Z,5.03
2023-01-23T05:18:40.874Z,5.00
2023-01-23T05:21:43.366Z,6.87
2023-01-23T05:24:50.795Z,5.93
2023-01-23T05:27:53.879Z,5.18
2023-01-23T05:30:57.094Z,6.37
2023-01-23T05:34:14.612Z,4.40
2023-01-23T05:37:17.654Z,6.95
2023-01-23T05:40:25.459Z,5.68
2023-01-23T05:43:57.523Z,4.25
2023-01-23T05:47:07.333Z,5.97
2023-01-23T05:50:15.222Z,5.43
2023-01-23T05:53:18.760Z,6.83
2023-01-23T05:56:21.395Z,5.75
2023-01-23T05:59:44.645Z,6.50
2023-01-23T06:03:06.655Z,5.57
2023-01-23T06:06:27.682Z,7.93
2023-01-23T06:09:30.500Z,6.68
2023-01-23T06:12:34.341Z,11.48
2023-01-23T06:15:37.500Z,8.70
2023-01-23T06:18:45.132Z,13.40
2023-01-23T06:21:49.436Z,13.90
2023-01-23T06:24:52.729Z,12.07
2023-01-23T06:27:55.720Z,13.57
2023-01-23T06:31:02.434Z,12.60
2023-01-23T06:34:15.017Z,10.83
2023-01-23T06:37:28.052Z,5.57
2023-01-23T06:40:30.844Z,9.55
2023-01-23T06:43:53.695Z,8.60
2023-01-23T06:46:59.011Z,5.40
2023-01-23T06:50:02.567Z,5.50
2023-01-23T06:53:09.552Z,5.47
2023-01-23T06:56:13.045Z,6.20
2023-01-23T06:59:15.739Z,5.93
2023-01-23T07:02:18.163Z,6.18
2023-01-23T07:05:26.095Z,6.27
2023-01-23T07:08:28.773Z,4.53
2023-01-23T07:11:31.448Z,5.70
2023-01-23T07:14:34.083Z,4.97
2023-01-23T07:17:36.500Z,7.05
2023-01-23T07:20:44.505Z,6.65
2023-01-23T07:23:46.892Z,4.90
2023-01-23T07:26:49.251Z,6.43
2023-01-23T07:29:51.826Z,4.97
2023-01-23T07:32:54.281Z,5.95
2023-01-23T07:35:56.606Z,5.90
2023-01-23T07:38:59.133Z,4.65
2023-01-23T07:42:01.575Z,4.85
2023-01-23T07:45:04.776Z,5.10
2023-01-23T07:48:07.368Z,3.92
2023-01-23T07:51:09.863Z,4.35
2023-01-23T07:54:12.461Z,4.45
2023-01-23T07:57:14.866Z,8.13
2023-01-23T08:00:18.001Z,5.28
2023-01-23T08:03:21.165Z,5.18
2023-01-23T08:06:23.628Z,4.73
2023-01-23T08:09:26.025Z,4.57
2023-01-23T08:12:28.618Z,4.63
2023-01-23T08:15:31.037Z,4.00
2023-01-23T08:18:34.267Z,5.68
2023-01-23T08:21:36.659Z,4.68
2023-01-23T08:24:39.110Z,4.43
2023-01-23T08:27:41.504Z,4.73
2023-01-23T08:30:44.881Z,4.32
2023-01-23T08:33:47.241Z,4.88
2023-01-23T08:36:50.309Z,4.27
2023-01-23T08:39:52.857Z,8.30
2023-01-23T08:42:57.367Z,5.18
2023-01-23T08:46:00.288Z,7.05
2023-01-23T08:49:05.070Z,5.03
2023-01-23T08:52:07.783Z,5.68
2023-01-23T08:55:11.001Z,6.07
2023-01-23T08:58:13.882Z,4.37
2023-01-23T09:01:19.235Z,4.53
2023-01-23T09:04:21.678Z,3.05
2023-01-23T09:07:24.149Z,4.93
2023-01-23T09:10:27.674Z,4.25
2023-01-23T09:13:30.217Z,5.85
2023-01-23T09:16:32.902Z,5.53
2023-01-23T09:19:35.343Z,3.97
2023-01-23T09:22:37.795Z,4.85
2023-01-23T09:25:40.382Z,2.88
2023-01-23T09:28:43.112Z,5.33
2023-01-23T09:31:48.842Z,3.85
2023-01-23T09:34:51.457Z,5.00
2023-01-23T09:38:04.232Z,3.27
2023-01-23T09:41:16.891Z,5.25
2023-01-23T09:44:25.636Z,4.15
2023-01-23T09:47:45.339Z,3.10
2023-01-23T09:51:02.395Z,3.63
2023-01-23T09:54:17.244Z,3.80
2023-01-23T09:57:28.471Z,3.80
2023-01-23T10:00:39.244Z,3.40
2023-01-23T10:03:42.267Z,3.88
2023-01-23T10:07:08.215Z,3.60
2023-01-23T10:10:25.908Z,3.23
2023-01-23T10:14:03.277Z,4.22
2023-01-23T10:17:27.944Z,4.00
2023-01-23T10:20:49.948Z,4.68
2023-01-23T10:24:03.465Z,3.00
2023-01-23T10:27:34.224Z,5.18
2023-01-23T10:30:39.173Z,5.20
2023-01-23T10:33:49.368Z,3.60
2023-01-23T10:36:57.435Z,5.05
2023-01-23T10:40:10.342Z,4.93
2023-01-23T10:43:14.811Z,8.23
2023-01-23T10:46:23.368Z,6.18
2023-01-23T10:49:31.375Z,3.70
2023-01-23T10:52:39.624Z,3.97
2023-01-23T10:55:45.817Z,4.90
2023-01-23T10:58:49.365Z,8.15
2023-01-23T11:02:02.835Z,5.55
2023-01-23T11:05:37.611Z,5.57
2023-01-23T11:09:00.920Z,7.55
2023-01-23T11:12:05.693Z,8.40
2023-01-23T11:15:11.935Z,4.77
2023-01-23T11:18:42.621Z,5.50
2023-01-23T11:21:56.739Z,7.50
2023-01-23T11:24:59.782Z,5.45
2023-01-23T11:28:34.073Z,6.88
2023-01-23T11:31:36.758Z,6.63
2023-01-23T11:34:57.222Z,7.25
2023-01-23T11:38:03.513Z,4.33
2023-01-23T11:41:11.357Z,6.32
2023-01-23T11:44:18.693Z,5.35
2023-01-23T11:47:58.998Z,4.20
2023-01-23T11:51:20.148Z,5.65
2023-01-23T11:54:59.907Z,4.95
2023-01-23T11:58:20.860Z,5.63
2023-01-23T12:01:36.492Z,6.40
2023-01-23T12:04:44.607Z,4.63
2023-01-23T12:08:08.686Z,4.55
2023-01-23T12:11:20.441Z,5.07
2023-01-23T12:14:47.365Z,6.07
2023-01-23T12:18:16.188Z,3.75
2023-01-23T12:21:42.657Z,4.33
2023-01-23T12:25:15.791Z,4.30
2023-01-23T12:28:23.973Z,4.20
2023-01-23T12:31:48.557Z,5.57
2023-01-23T12:34:56.960Z,3.70
2023-01-23T12:38:27.181Z,3.22
2023-01-23T12:41:37.958Z,4.43
2023-01-23T12:45:13.547Z,4.53
2023-01-23T12:48:30.221Z,3.70
2023-01-23T12:51:43.311Z,4.63
2023-01-23T12:54:57.004Z,4.93
2023-01-23T12:58:09.149Z,6.80
2023-01-23T13:01:38.181Z,4.47
2023-01-23T13:05:02.163Z,5.65
2023-01-23T13:08:11.693Z,5.35
2023-01-23T13:11:40.988Z,5.32
2023-01-23T13:18:21.414Z,4.27
2023-01-23T13:21:43.263Z,5.05
2023-01-23T13:25:06.884Z,5.43
2023-01-23T13:28:45.275Z,6.00
2023-01-23T13:31:50.648Z,3.83
2023-01-23T13:34:53.267Z,3.50
2023-01-23T13:37:55.709Z,4.40
2023-01-23T13:41:04.662Z,3.20
2023-01-23T13:44:40.376Z,3.97
2023-01-23T14:22:47.264Z,4.57
2023-01-23T14:25:49.859Z,5.13
2023-01-23T14:28:54.857Z,4.90
2023-01-23T14:31:57.542Z,5.55
2023-01-23T14:35:00.103Z,4.17
2023-01-23T14:38:06.822Z,4.40
2023-01-23T14:41:09.406Z,5.93
2023-01-23T14:44:20.833Z,5.50
2023-01-23T14:47:34.731Z,4.25
2023-01-23T14:50:38.202Z,6.10
2023-01-23T14:53:41.063Z,5.47
2023-01-23T14:56:45.564Z,7.53
2023-01-23T14:59:49.637Z,6.07
2023-01-23T15:02:54.443Z,6.18
2023-01-23T15:05:59.457Z,9.00
2023-01-23T15:09:15.758Z,5.90
2023-01-23T15:12:19.289Z,10.90
2023-01-23T15:15:24.646Z,6.03
2023-01-23T15:18:36.260Z,6.15
2023-01-23T15:21:40.994Z,5.00
2023-01-23T15:24:43.879Z,7.75
2023-01-23T15:27:46.728Z,6.33
2023-01-23T15:30:49.222Z,6.25
2023-01-23T15:33:52.095Z,5.63
2023-01-23T15:37:08.416Z,6.13
2023-01-23T15:40:19.732Z,6.80
2023-01-23T15:43:22.156Z,5.25
2023-01-23T15:46:24.589Z,5.47
2023-01-23T15:49:28.435Z,5.60
2023-01-23T15:52:46.127Z,5.53
2023-01-23T15:55:48.461Z,7.53
2023-01-23T15:58:50.867Z,5.80
2023-01-23T16:01:53.462Z,6.32
2023-01-23T16:04:55.845Z,5.93
2023-01-23T16:08:03.352Z,7.13
2023-01-23T16:11:08.551Z,5.38
2023-01-23T16:14:16.942Z,8.25
2023-01-23T16:17:19.577Z,5.60
2023-01-23T16:20:28.775Z,11.15
2023-01-23T16:23:39.130Z,8.65
2023-01-23T16:26:50.764Z,7.50
2023-01-23T16:29:54.878Z,7.53
2023-01-23T16:32:57.911Z,7.20
2023-01-23T16:36:00.602Z,7.97
2023-01-23T16:39:03.539Z,8.43
2023-01-23T16:42:06.628Z,5.35
2023-01-23T16:45:21.559Z,7.60
2023-01-23T16:48:27.922Z,7.68
2023-01-23T16:51:32.834Z,10.95
2023-01-23T16:54:36.193Z,9.05
2023-01-23T16:57:38.652Z,5.72
2023-01-23T17:00:42.368Z,5.87
2023-01-23T17:03:45.212Z,6.05
2023-01-23T17:06:48.566Z,5.45
2023-01-23T17:09:51.782Z,9.93
2023-01-23T17:12:56.900Z,8.32
2023-01-23T17:16:00.792Z,9.32
2023-01-23T17:19:14.954Z,9.07
2023-01-23T17:22:23.116Z,9.05
2023-01-23T17:25:26.812Z,6.78
2023-01-23T17:28:29.590Z,9.32
2023-01-23T17:31:33.072Z,9.70
2023-01-23T17:34:45.128Z,7.97
2023-01-23T17:37:52.445Z,8.38
2023-01-23T17:40:55.742Z,9.47
2023-01-23T17:43:58.478Z,7.82
2023-01-23T17:47:00.981Z,6.22
2023-01-23T17:50:04.713Z,6.80
2023-01-23T17:53:09.048Z,8.15
2023-01-23T17:56:12.003Z,7.65
2023-01-23T17:59:14.514Z,7.35
2023-01-23T18:02:27.133Z,6.87
2023-01-23T18:05:30.059Z,6.72
2023-01-23T18:08:32.926Z,8.30
2023-01-23T18:11:38.293Z,7.93
2023-01-23T18:14:52.791Z,9.27
2023-01-23T18:18:09.167Z,7.65
2023-01-23T18:21:17.933Z,8.52
2023-01-23T18:24:29.240Z,12.73
2023-01-23T18:27:40.368Z,17.80
2023-01-23T18:30:54.881Z,8.05
2023-01-23T18:34:18.032Z,8.80
2023-01-23T18:37:32.524Z,8.63
2023-01-23T18:40:43.224Z,7.43
2023-01-23T18:43:56.016Z,9.47
2023-01-23T18:47:00.216Z,6.95
2023-01-23T18:50:03.693Z,6.75
2023-01-23T18:53:26.530Z,6.80
2023-01-23T18:56:40.271Z,12.35
2023-01-23T18:59:55.528Z,11.38
2023-01-23T19:03:17.862Z,8.60
2023-01-23T19:06:23.227Z,8.37
2023-01-23T19:09:27.230Z,7.63
2023-01-23T19:12:35.847Z,6.90
2023-01-23T19:16:39.944Z,8.50
2023-01-23T19:19:56.785Z,9.85
2023-01-23T19:23:10.895Z,11.60
2023-01-23T19:26:15.221Z,10.43
2023-01-23T19:29:22.867Z,9.05
2023-01-23T19:32:26.258Z,12.20
2023-01-23T19:35:29.464Z,14.07
2023-01-23T19:38:32.238Z,14.80
2023-01-23T19:41:39.416Z,16.15
2023-01-23T19:44:42.232Z,9.43
2023-01-23T19:47:45.692Z,8.03
2023-01-23T19:50:48.469Z,8.50
2023-01-23T19:53:50.881Z,10.95
2023-01-23T19:56:53.470Z,10.30
2023-01-23T19:59:56.684Z,11.52
2023-01-23T20:02:59.592Z,12.30
2023-01-23T20:06:02.208Z,14.43
2023-01-23T20:09:04.660Z,17.47
2023-01-23T20:12:07.365Z,20.23
2023-01-23T20:15:12.959Z,15.98
2023-01-23T20:18:15.748Z,10.97
2023-01-23T20:21:26.097Z,14.13
2023-01-23T20:24:28.692Z,17.30
2023-01-23T20:27:31.357Z,14.02
2023-01-23T20:30:35.535Z,31.70
2023-01-23T20:33:39.584Z,57.83
2023-01-23T20:36:42.864Z,57.40
2023-01-23T20:39:45.659Z,51.37
2023-01-23T20:42:48.183Z,45.50
2023-01-23T20:45:52.530Z,36.80
2023-01-23T20:48:56.450Z,33.53
2023-01-23T20:52:19.295Z,28.77
2023-01-23T20:55:22.103Z,18.02
2023-01-23T20:58:43.426Z,20.17
2023-01-23T21:02:05.268Z,21.90
2023-01-23T21:05:08.066Z,19.02
2023-01-23T21:08:10.892Z,21.98
2023-01-23T21:11:16.398Z,28.10
2023-01-23T21:14:20.033Z,31.90
2023-01-23T21:17:22.396Z,29.80
2023-01-23T21:20:24.833Z,32.70
2023-01-23T21:23:27.531Z,41.08
2023-01-23T21:26:30.216Z,34.22
2023-01-23T21:29:34.134Z,25.73
2023-01-23T21:32:36.534Z,22.65
2023-01-23T21:35:39.049Z,17.70
2023-01-23T21:38:41.652Z,14.95
2023-01-23T21:41:44.882Z,11.90
2023-01-23T21:44:48.111Z,9.25
2023-01-23T21:47:50.492Z,11.68
2023-01-23T21:50:52.865Z,10.13
2023-01-23T21:53:55.221Z,10.50
2023-01-23T21:56:57.657Z,10.13
2023-01-23T22:00:18.448Z,6.53
2023-01-23T22:03:20.864Z,6.30
2023-01-23T22:06:23.355Z,5.40
2023-01-23T22:09:26.072Z,7.03
2023-01-23T22:12:29.035Z,6.40
2023-01-23T22:15:31.424Z,5.97
2023-01-23T22:18:34.102Z,6.82
2023-01-23T22:21:36.772Z,8.03
2023-01-23T22:24:39.212Z,7.88
2023-01-23T22:27:41.575Z,6.35
2023-01-23T22:30:46.525Z,8.50
2023-01-23T22:33:49.036Z,9.27
2023-01-23T22:36:51.456Z,9.52
2023-01-23T22:39:53.904Z,10.00
2023-01-23T22:42:56.399Z,8.53
2023-01-23T22:46:07.333Z,6.57
2023-01-23T22:49:10.484Z,6.50
2023-01-23T22:52:12.830Z,6.40
2023-01-23T22:55:15.747Z,6.65
2023-01-23T22:58:18.135Z,5.68
2023-01-23T23:01:23.481Z,6.85
2023-01-23T23:04:25.908Z,7.53
2023-01-23T23:07:28.544Z,6.75
2023-01-23T23:10:35.693Z,6.68
2023-01-23T23:13:40.207Z,6.53
2023-01-23T23:16:42.596Z,7.35
2023-01-23T23:19:45.212Z,5.22
2023-01-23T23:22:47.820Z,5.43
2023-01-23T23:25:54.792Z,6.28
2023-01-23T23:28:59.089Z,6.75
2023-01-23T23:32:01.596Z,4.93
2023-01-23T23:35:04.327Z,6.88
2023-01-23T23:38:06.739Z,7.03
2023-01-23T23:41:13.023Z,6.95
2023-01-23T23:44:15.571Z,5.87
2023-01-23T23:47:17.937Z,7.88
2023-01-23T23:50:21.432Z,7.68
2023-01-23T23:53:23.808Z,6.53
2023-01-23T23:56:28.976Z,7.25
2023-01-23T23:59:31.380Z,7.07
